Time,TemperatureF,DewpointF,PressureIn,WindDirection,WindDirectionDegrees,WindSpeedMPH,WindSpeedGustMPH,Humidity,HourlyPrecipIn,Conditions,Clouds,dailyrainin,SolarRadiationWatts/m^2,SoftwareType,DateUTC
2013-01-26 00:01:00,40.0,33.0,30.03,SSW,194,10.0,15.0,73,-99.99,,,-99.99,-0.100000,,2013-01-26 07:01:00,
2013-01-26 00:11:00,41.0,33.0,30.02,SSE,167,15.0,19.0,73,-99.99,,,-99.99,-0.100000,,2013-01-26 07:11:00,
2013-01-26 00:21:00,41.0,33.0,30.01,SSE,161,16.0,23.0,73,-99.99,,,-99.99,0.000000,,2013-01-26 07:21:00,
2013-01-26 00:33:00,41.0,33.0,30.01,SSE,164,15.0,21.0,73,-99.99,,,-99.99,-0.100000,,2013-01-26 07:33:00,
2013-01-26 00:41:00,40.0,33.0,30.01,SSE,166,16.0,22.0,73,-99.99,,,-99.99,-0.100000,,2013-01-26 07:41:00,
2013-01-26 00:51:00,40.0,33.0,30.01,SSE,165,16.0,24.0,73,-99.99,,,-99.99,-0.100000,,2013-01-26 07:51:00,
2013-01-26 01:02:00,41.0,33.0,30.01,SSE,165,16.0,25.0,72,-99.99,,,-99.99,-0.100000,,2013-01-26 08:02:00,
2013-01-26 01:21:00,40.0,33.0,30.01,SSE,164,17.0,22.0,73,-99.99,,,-99.99,0.000000,,2013-01-26 08:21:00,
2013-01-26 01:31:00,40.0,33.0,30.00,SSE,162,17.0,22.0,73,-99.99,,,-99.99,-0.100000,,2013-01-26 08:31:00,
2013-01-26 01:41:00,41.0,33.0,30.00,SSE,164,16.0,22.0,73,-99.99,,,-99.99,-0.100000,,2013-01-26 08:41:00,
2013-01-26 01:53:00,41.0,33.0,30.00,SSE,164,17.0,26.0,73,-99.99,,,-99.99,0.000000,,2013-01-26 08:53:00,
2013-01-26 02:11:00,41.0,33.0,29.99,SSE,164,17.0,22.0,72,-99.99,,,-99.99,0.000000,,2013-01-26 09:11:00,
2013-01-26 02:22:00,40.0,33.0,29.99,SSE,163,18.0,27.0,74,-99.99,,,-99.99,-0.200000,,2013-01-26 09:22:00,
2013-01-26 02:31:00,40.0,33.0,29.99,SSE,167,17.0,24.0,74,-99.99,,,-99.99,-0.100000,,2013-01-26 09:31:00,
2013-01-26 02:42:00,40.0,33.0,29.99,SSE,165,18.0,24.0,74,-99.99,,,-99.99,0.000000,,2013-01-26 09:42:00,
2013-01-26 02:51:00,40.0,33.0,29.99,SSE,164,17.0,23.0,74,-99.99,,,-99.99,0.000000,,2013-01-26 09:51:00,
2013-01-26 03:11:00,40.0,33.0,29.99,SSE,163,18.0,23.0,74,-99.99,,,-99.99,-0.100000,,2013-01-26 10:11:00,
2013-01-26 03:21:00,40.0,33.0,29.98,SSE,164,15.0,19.0,74,-99.99,,,-99.99,-0.100000,,2013-01-26 10:21:00,
2013-01-26 03:31:00,40.0,33.0,29.98,SSE,163,16.0,20.0,74,-99.99,,,-99.99,0.000000,,2013-01-26 10:31:00,
2013-01-26 03:52:00,40.0,33.0,29.98,SSE,162,16.0,20.0,73,-99.99,,,-99.99,-0.100000,,2013-01-26 10:52:00,
2013-01-26 04:01:00,40.0,33.0,29.97,SSE,162,14.0,21.0,75,-99.99,,,-99.99,-0.100000,,2013-01-26 11:01:00,
2013-01-26 04:32:00,40.0,33.0,29.95,SSE,163,16.0,21.0,75,-99.99,,,-99.99,0.000000,,2013-01-26 11:32:00,
2013-01-26 04:41:00,40.0,33.0,29.95,SSE,168,15.0,22.0,75,-99.99,,,-99.99,-0.100000,,2013-01-26 11:41:00,
2013-01-26 04:52:00,40.0,33.0,29.95,SSE,166,17.0,22.0,75,-99.99,,,-99.99,-0.100000,,2013-01-26 11:52:00,
2013-01-26 05:01:00,40.0,33.0,29.95,SSE,168,15.0,23.0,74,-99.99,,,-99.99,-0.100000,,2013-01-26 12:01:00,
2013-01-26 05:12:00,40.0,33.0,29.94,SSE,161,16.0,21.0,74,-99.99,,,-99.99,0.000000,,2013-01-26 12:12:00,
2013-01-26 05:22:00,40.0,33.0,29.94,SSE,165,15.0,20.0,74,-99.99,,,-99.99,-0.100000,,2013-01-26 12:22:00,
2013-01-26 05:42:00,40.0,34.0,29.95,SSE,164,16.0,20.0,77,-99.99,,,-99.99,-0.100000,,2013-01-26 12:42:00,
2013-01-26 06:02:00,39.0,34.0,29.94,South,175,13.0,19.0,79,-99.99,,,-99.99,-0.100000,,2013-01-26 13:02:00,
2013-01-26 06:12:00,40.0,34.0,29.94,SSE,163,13.0,20.0,79,-99.99,,,-99.99,0.000000,,2013-01-26 13:12:00,
2013-01-26 06:22:00,40.0,34.0,29.94,SSE,167,12.0,16.0,79,-99.99,,,-99.99,-0.100000,,2013-01-26 13:22:00,
2013-01-26 06:32:00,40.0,34.0,29.94,SSE,161,14.0,17.0,79,-99.99,,,-99.99,0.000000,,2013-01-26 13:32:00,
2013-01-26 06:52:00,40.0,34.0,29.93,SSE,168,12.0,17.0,77,-99.99,,,-99.99,-0.100000,,2013-01-26 13:52:00,
2013-01-26 07:02:00,40.0,33.0,29.93,South,171,11.0,16.0,76,-99.99,,,-99.99,-0.100000,,2013-01-26 14:02:00,
2013-01-26 07:11:00,40.0,33.0,29.94,South,179,9.0,15.0,76,-99.99,,,-99.99,0.000000,,2013-01-26 14:11:00,
2013-01-26 07:21:00,40.0,33.0,29.94,WSW,239,6.0,10.0,78,-99.99,,,-99.99,-0.100000,,2013-01-26 14:21:00,
2013-01-26 07:31:00,36.0,31.0,29.94,North,7,11.0,13.0,81,-99.99,,,-99.99,0.000000,,2013-01-26 14:31:00,
2013-01-26 07:42:00,35.0,31.0,29.94,NNE,32,6.0,8.0,85,-99.99,,,-99.99,0.000000,,2013-01-26 14:42:00,
2013-01-26 07:52:00,35.0,31.0,29.94,NE,34,5.0,7.0,87,-99.99,,,-99.99,0.100000,,2013-01-26 14:52:00,
2013-01-26 08:02:00,34.0,31.0,29.94,NE,43,4.0,6.0,88,-99.99,,,-99.99,1.600000,,2013-01-26 15:02:00,
2013-01-26 08:11:00,34.0,31.0,29.94,NE,48,4.0,5.0,88,-99.99,,,-99.99,2.300000,,2013-01-26 15:11:00,
2013-01-26 08:32:00,35.0,32.0,29.93,NNE,25,3.0,4.0,89,-99.99,,,-99.99,9.700000,,2013-01-26 15:32:00,
2013-01-26 08:42:00,35.0,32.0,29.93,NNW,345,5.0,7.0,89,-99.99,,,-99.99,12.800000,,2013-01-26 15:42:00,
2013-01-26 08:52:00,36.0,33.0,29.93,NW,314,3.0,7.0,88,-99.99,,,-99.99,15.000000,,2013-01-26 15:52:00,
2013-01-26 09:01:00,36.0,32.0,29.93,North,10,4.0,6.0,85,-99.99,,,-99.99,28.200001,,2013-01-26 16:01:00,
2013-01-26 09:21:00,39.0,34.0,29.93,SSE,149,4.0,6.0,81,-99.99,,,-99.99,68.300003,,2013-01-26 16:21:00,
2013-01-26 09:31:00,37.0,33.0,29.93,NNE,32,3.0,4.0,84,-99.99,,,-99.99,50.400002,,2013-01-26 16:31:00,
2013-01-26 09:41:00,36.0,33.0,29.93,NNE,24,3.0,4.0,86,-99.99,,,-99.99,51.000000,,2013-01-26 16:41:00,
2013-01-26 09:52:00,37.0,33.0,29.93,NNE,18,3.0,3.0,85,-99.99,,,-99.99,50.299999,,2013-01-26 16:52:00,
2013-01-26 10:02:00,37.0,33.0,29.93,NNW,348,4.0,5.0,85,-99.99,,,-99.99,64.300003,,2013-01-26 17:02:00,
2013-01-26 10:12:00,37.0,33.0,29.93,NW,323,3.0,4.0,86,-99.99,,,-99.99,64.000000,,2013-01-26 17:12:00,
2013-01-26 10:21:00,37.0,33.0,29.93,North,356,3.0,5.0,86,-99.99,,,-99.99,35.400002,,2013-01-26 17:21:00,
2013-01-26 10:41:00,39.0,34.0,29.93,West,263,3.0,4.0,81,-99.99,,,-99.99,65.599998,,2013-01-26 17:41:00,
2013-01-26 10:52:00,40.0,34.0,29.93,SSE,165,2.0,3.0,79,-99.99,,,-99.99,108.500000,,2013-01-26 17:52:00,
2013-01-26 11:11:00,40.0,34.0,29.93,North,352,2.0,2.0,79,-99.99,,,-99.99,206.399994,,2013-01-26 18:11:00,
2013-01-26 11:32:00,41.0,35.0,29.92,NE,44,2.0,3.0,78,-99.99,,,-99.99,368.399994,,2013-01-26 18:32:00,
2013-01-26 11:41:00,44.0,36.0,29.91,SSE,168,8.0,11.0,72,-99.99,,,-99.99,553.900024,,2013-01-26 18:41:00,
2013-01-26 11:52:00,45.0,35.0,29.90,South,170,13.0,16.0,69,-99.99,,,-99.99,229.600006,,2013-01-26 18:52:00,
2013-01-26 12:02:00,44.0,35.0,29.90,South,170,11.0,16.0,70,-99.99,,,-99.99,424.000000,,2013-01-26 19:02:00,
2013-01-26 12:11:00,45.0,35.0,29.89,SSE,165,13.0,16.0,67,-99.99,,,-99.99,347.700012,,2013-01-26 19:11:00,
2013-01-26 12:22:00,44.0,35.0,29.89,South,171,14.0,19.0,69,-99.99,,,-99.99,421.100006,,2013-01-26 19:22:00,
2013-01-26 12:42:00,45.0,35.0,29.87,South,169,16.0,20.0,68,-99.99,,,-99.99,394.799988,,2013-01-26 19:42:00,
2013-01-26 12:52:00,45.0,36.0,29.87,SSE,167,13.0,17.0,68,-99.99,,,-99.99,569.599976,,2013-01-26 19:52:00,
2013-01-26 13:02:00,45.0,36.0,29.86,SSE,163,12.0,16.0,68,-99.99,,,-99.99,491.700012,,2013-01-26 20:02:00,
2013-01-26 13:21:00,45.0,35.0,29.84,South,169,12.0,16.0,67,-99.99,,,-99.99,313.200012,,2013-01-26 20:21:00,
2013-01-26 13:32:00,45.0,36.0,29.83,South,179,12.0,17.0,68,-99.99,,,-99.99,443.500000,,2013-01-26 20:32:00,
2013-01-26 13:41:00,47.0,36.0,29.83,South,185,10.0,13.0,66,-99.99,,,-99.99,504.700012,,2013-01-26 20:41:00,
2013-01-26 13:52:00,46.0,35.0,29.83,South,175,11.0,13.0,65,-99.99,,,-99.99,272.899994,,2013-01-26 20:52:00,
2013-01-26 14:02:00,46.0,36.0,29.82,South,176,12.0,15.0,65,-99.99,,,-99.99,350.200012,,2013-01-26 21:02:00,
2013-01-26 14:11:00,47.0,36.0,29.82,South,180,11.0,15.0,65,-99.99,,,-99.99,406.500000,,2013-01-26 21:11:00,
2013-01-26 14:22:00,47.0,36.0,29.81,South,173,10.0,16.0,65,-99.99,,,-99.99,344.399994,,2013-01-26 21:22:00,
2013-01-26 14:31:00,47.0,36.0,29.81,South,175,13.0,19.0,65,-99.99,,,-99.99,359.899994,,2013-01-26 21:31:00,
2013-01-26 14:42:00,47.0,36.0,29.81,South,177,13.0,17.0,64,-99.99,,,-99.99,309.399994,,2013-01-26 21:42:00,
2013-01-26 14:51:00,47.0,36.0,29.80,SSE,167,12.0,15.0,64,-99.99,,,-99.99,334.700012,,2013-01-26 21:51:00,
2013-01-26 15:01:00,47.0,36.0,29.80,South,177,11.0,16.0,64,-99.99,,,-99.99,265.899994,,2013-01-26 22:01:00,
2013-01-26 15:31:00,47.0,35.0,29.80,South,175,11.0,14.0,64,-99.99,,,-99.99,167.300003,,2013-01-26 22:31:00,
2013-01-26 15:41:00,46.0,35.0,29.80,South,175,9.0,13.0,65,-99.99,,,-99.99,86.800003,,2013-01-26 22:41:00,
2013-01-26 15:51:00,45.0,35.0,29.80,South,174,7.0,10.0,66,-99.99,,,-99.99,68.400002,,2013-01-26 22:51:00,
2013-01-26 16:01:00,45.0,34.0,29.80,South,184,7.0,12.0,66,-99.99,,,-99.99,58.500000,,2013-01-26 23:01:00,
2013-01-26 16:32:00,40.0,34.0,29.80,North,1,9.0,13.0,79,-99.99,,,-99.99,39.200001,,2013-01-26 23:32:00,
2013-01-26 16:41:00,38.0,33.0,29.80,North,350,10.0,12.0,81,-99.99,,,-99.99,27.500000,,2013-01-26 23:41:00,
2013-01-26 16:51:00,38.0,33.0,29.80,North,358,6.0,7.0,83,-99.99,,,-99.99,27.900000,,2013-01-26 23:51:00,
2013-01-26 17:01:00,38.0,34.0,29.79,NNE,19,6.0,8.0,84,-99.99,,,-99.99,52.200001,,2013-01-27 00:01:00,
2013-01-26 17:11:00,38.0,34.0,29.79,East,82,4.0,4.0,84,-99.99,,,-99.99,43.599998,,2013-01-27 00:11:00,
2013-01-26 17:21:00,38.0,34.0,29.78,ENE,69,5.0,6.0,85,-99.99,,,-99.99,44.599998,,2013-01-27 00:21:00,
2013-01-26 17:31:00,38.0,34.0,29.78,NE,45,3.0,5.0,85,-99.99,,,-99.99,26.500000,,2013-01-27 00:31:00,
2013-01-26 17:41:00,38.0,34.0,29.78,NNE,32,3.0,4.0,85,-99.99,,,-99.99,13.000000,,2013-01-27 00:41:00,
2013-01-26 18:01:00,38.0,34.0,29.78,North,351,5.0,6.0,84,-99.99,,,-99.99,2.900000,,2013-01-27 01:01:00,
2013-01-26 18:11:00,38.0,34.0,29.78,NNW,334,4.0,5.0,85,-99.99,,,-99.99,0.100000,,2013-01-27 01:11:00,
2013-01-26 18:21:00,37.0,33.0,29.78,ENE,77,3.0,4.0,85,-99.99,,,-99.99,0.000000,,2013-01-27 01:21:00,
2013-01-26 18:32:00,37.0,33.0,29.78,East,99,4.0,4.0,86,-99.99,,,-99.99,-0.100000,,2013-01-27 01:32:00,
2013-01-26 18:41:00,37.0,33.0,29.78,ESE,103,3.0,3.0,86,-99.99,,,-99.99,-0.100000,,2013-01-27 01:41:00,
2013-01-26 18:51:00,37.0,34.0,29.78,East,90,3.0,3.0,87,-99.99,,,-99.99,-0.100000,,2013-01-27 01:51:00,
2013-01-26 19:01:00,38.0,34.0,29.79,ESE,109,4.0,4.0,86,-99.99,,,-99.99,0.000000,,2013-01-27 02:01:00,
2013-01-26 19:11:00,37.0,33.0,29.78,ESE,104,3.0,4.0,86,-99.99,,,-99.99,-0.100000,,2013-01-27 02:11:00,
2013-01-26 19:31:00,37.0,34.0,29.78,East,82,5.0,6.0,87,-99.99,,,-99.99,-0.100000,,2013-01-27 02:31:00,
2013-01-26 19:52:00,37.0,33.0,29.77,NNE,14,2.0,3.0,88,-99.99,,,-99.99,-0.100000,,2013-01-27 02:52:00,
2013-01-26 20:01:00,37.0,34.0,29.77,NNW,337,2.0,3.0,87,-99.99,,,-99.99,-0.100000,,2013-01-27 03:01:00,
2013-01-26 20:11:00,37.0,33.0,29.77,NW,320,6.0,8.0,87,-99.99,,,-99.99,-0.100000,,2013-01-27 03:11:00,
2013-01-26 20:21:00,37.0,33.0,29.77,NW,314,4.0,5.0,86,-99.99,,,-99.99,-0.100000,,2013-01-27 03:21:00,
2013-01-26 20:31:00,36.0,33.0,29.76,NW,306,2.0,2.0,86,-99.99,,,-99.99,-0.200000,,2013-01-27 03:31:00,
2013-01-26 20:41:00,36.0,33.0,29.76,NW,323,3.0,4.0,87,-99.99,,,-99.99,-0.100000,,2013-01-27 03:41:00,
2013-01-26 20:51:00,37.0,33.0,29.77,NW,317,5.0,7.0,87,-99.99,,,-99.99,-0.100000,,2013-01-27 03:51:00,
2013-01-26 21:01:00,36.0,32.0,29.77,NW,306,6.0,8.0,87,-99.99,,,-99.99,-0.100000,,2013-01-27 04:01:00,
2013-01-26 21:11:00,36.0,32.0,29.77,NW,305,3.0,5.0,88,-99.99,,,-99.99,-0.100000,,2013-01-27 04:11:00,
2013-01-26 21:41:00,35.0,32.0,29.78,ENE,62,1.0,2.0,89,-99.99,,,-99.99,-0.100000,,2013-01-27 04:41:00,
2013-01-26 21:51:00,35.0,32.0,29.78,SE,128,4.0,4.0,89,-99.99,,,-99.99,-0.100000,,2013-01-27 04:51:00,
2013-01-26 22:03:00,35.0,32.0,29.78,ESE,117,4.0,5.0,90,-99.99,,,-99.99,-0.100000,,2013-01-27 05:03:00,
2013-01-26 22:11:00,35.0,32.0,29.77,ESE,116,6.0,6.0,90,-99.99,,,-99.99,-0.100000,,2013-01-27 05:11:00,
2013-01-26 22:22:00,35.0,32.0,29.77,ESE,123,6.0,7.0,90,-99.99,,,-99.99,-0.100000,,2013-01-27 05:22:00,
2013-01-26 22:31:00,35.0,32.0,29.77,ESE,103,5.0,6.0,90,-99.99,,,-99.99,-0.100000,,2013-01-27 05:31:00,
2013-01-26 22:41:00,35.0,32.0,29.77,ENE,70,3.0,4.0,90,-99.99,,,-99.99,0.000000,,2013-01-27 05:41:00,
2013-01-26 22:51:00,35.0,32.0,29.76,East,94,4.0,6.0,90,-99.99,,,-99.99,-0.100000,,2013-01-27 05:51:00,
2013-01-26 23:01:00,35.0,33.0,29.77,East,79,4.0,6.0,90,-99.99,,,-99.99,-0.100000,,2013-01-27 06:01:00,
2013-01-26 23:21:00,38.0,35.0,29.76,ESE,112,5.0,10.0,88,-99.99,,,-99.99,-0.100000,,2013-01-27 06:21:00,
2013-01-26 23:41:00,38.0,33.0,29.77,WSW,237,3.0,5.0,84,-99.99,,,-99.99,-0.100000,,2013-01-27 06:41:00,
2013-01-26 23:51:00,38.0,33.0,29.76,SW,227,4.0,4.0,83,-99.99,,,-99.99,-0.100000,,2013-01-27 06:51:00,